Terminal Aerodrome Forecast
Issued by NWS Cleveland, OH

Home | Current Version | Previous Version | Graphics & Text | Print | Product List | Glossary On
Versions: 1 2 3 4 5 6 7 8 9 10 11 12 13 14 15 16
000
FTUS41 KCLE 251738
TAFMFD
TAF
KMFD 251738Z 2518/2618 26020G32KT 6SM -SHSN BKN025 OVC040
      TEMPO 2518/2522 3SM -SHSN BKN015
     FM260200 27014G22KT P6SM OVC025
     FM261500 23008KT P6SM BKN035=

USA.gov is the U.S. government's official web portal to all federal, state and local government web resources and services.